Time;durP1;ratioP1;P1;durP2;ratioP2;P2;SDS_P1;SDS_P2;PMS_P1;PMS_P2;Temp;Humidity;BMP_temperature;BMP_pressure;BME280_temperature;BME280_humidity;BME280_pressure;Samples;Min_cycle;Max_cycle;Signal;HPM_P1;HPM_P2
2022/06/07 06:43:28;;;;;;;23.35;9.77;;;;;;;20.84;61.76;93996.91;5107209;28;20040;-78
2022/06/07 06:46:06;;;;;;;12.95;7.47;;;;;;;20.91;61.81;93994.25;5105278;28;20349;-79
2022/06/07 06:48:34;;;;;;;14.50;7.25;;;;;;;21.01;62.00;93998.22;5106010;28;20203;-80
2022/06/07 06:51:14;;;;;;;15.25;7.88;;;;;;;21.16;61.88;93996.38;5105759;28;20222;-78
2022/06/07 06:54:04;;;;;;;15.63;8.73;;;;;;;21.23;61.16;94005.34;5103307;28;20027;-81
2022/06/07 06:56:31;;;;;;;19.20;10.32;;;;;;;21.22;60.88;94006.47;5103401;28;20023;-75
2022/06/07 06:58:57;;;;;;;20.48;10.68;;;;;;;21.23;61.11;94002.63;5104706;28;20022;-77
2022/06/07 07:01:27;;;;;;;23.08;10.38;;;;;;;21.32;60.92;94004.22;5104800;28;20023;-76
2022/06/07 07:03:53;;;;;;;19.42;8.73;;;;;;;21.40;60.79;93995.75;5104761;28;20215;-77
2022/06/07 07:06:20;;;;;;;17.02;10.40;;;;;;;21.51;60.83;93997.78;5104586;28;20087;-76
2022/06/07 07:08:46;;;;;;;12.05;9.15;;;;;;;21.51;60.02;93997.78;5104572;28;20023;-76
2022/06/07 07:11:29;;;;;;;16.20;9.20;;;;;;;21.54;59.63;93997.81;5104581;28;20016;-78
2022/06/07 07:13:58;;;;;;;22.85;10.25;;;;;;;21.55;60.02;93995.84;5104521;28;20032;-79
2022/06/07 07:16:29;;;;;;;22.35;9.50;;;;;;;21.57;60.21;93990.84;5104533;28;20083;-77
2022/06/07 07:18:55;;;;;;;22.02;9.20;;;;;;;21.60;60.04;93981.94;5104246;28;20019;-79
2022/06/07 07:21:26;;;;;;;16.58;10.80;;;;;;;21.67;60.04;93989.34;5104302;28;20020;-79
2022/06/07 07:23:52;;;;;;;19.98;10.43;;;;;;;21.64;60.40;93990.88;5104177;28;20019;-78
2022/06/07 07:26:20;;;;;;;24.60;10.93;;;;;;;21.77;60.52;93989.38;5104284;28;20279;-77
2022/06/07 07:28:46;;;;;;;24.27;11.93;;;;;;;21.87;59.86;93985.16;5104311;28;20378;-77
2022/06/07 07:31:17;;;;;;;18.23;11.43;;;;;;;21.86;59.08;93985.53;5104035;28;20069;-76
2022/06/07 07:33:42;;;;;;;21.55;10.98;;;;;;;21.83;59.50;93977.00;5104045;28;20222;-74
2022/06/07 07:36:09;;;;;;;18.73;9.63;;;;;;;21.73;59.09;93988.59;5104108;28;20024;-74
2022/06/07 07:38:36;;;;;;;18.55;8.88;;;;;;;21.78;59.15;93980.09;5103844;28;20040;-75
2022/06/07 07:41:02;;;;;;;20.15;9.93;;;;;;;21.87;58.66;93976.25;5104094;28;20015;-74
2022/06/07 07:43:28;;;;;;;17.95;9.27;;;;;;;21.91;58.27;93968.91;5103747;28;20047;-74
2022/06/07 07:45:55;;;;;;;16.27;8.23;;;;;;;21.94;58.43;93970.84;5103968;28;20016;-74
2022/06/07 07:48:22;;;;;;;15.90;8.55;;;;;;;21.92;58.10;93963.09;5103796;28;20027;-75
2022/06/07 07:50:48;;;;;;;20.65;10.70;;;;;;;21.97;58.41;93965.44;5103699;28;20322;-74
2022/06/07 07:53:15;;;;;;;12.25;7.72;;;;;;;22.06;57.50;93961.56;5104042;28;20207;-75
2022/06/07 07:55:46;;;;;;;13.70;6.40;;;;;;;22.11;57.14;93956.56;5103824;28;20027;-75
2022/06/07 07:58:12;;;;;;;22.33;8.07;;;;;;;22.12;56.06;93955.38;5103797;28;20012;-75
2022/06/07 08:00:45;;;;;;;23.55;9.40;;;;;;;22.18;56.99;93947.66;5103504;28;20023;-75
2022/06/07 08:03:11;;;;;;;18.38;8.60;;;;;;;22.22;57.29;93953.84;5103448;28;20020;-75
2022/06/07 08:05:36;;;;;;;21.38;8.63;;;;;;;22.20;56.42;93940.66;5103986;28;20081;-74
2022/06/07 08:08:03;;;;;;;21.88;7.43;;;;;;;22.21;56.17;93939.50;5086603;28;20355;-76
2022/06/07 08:10:29;;;;;;;10.70;6.85;;;;;;;22.31;55.80;93937.22;5104227;28;20023;-76
2022/06/07 08:12:58;;;;;;;13.65;7.05;;;;;;;22.31;55.38;93940.72;5103598;28;20024;-75
2022/06/07 08:15:24;;;;;;;21.08;7.20;;;;;;;22.36;55.71;93932.19;5103554;28;20048;-75
2022/06/07 08:17:52;;;;;;;15.25;6.65;;;;;;;22.34;55.24;93928.31;5103303;28;20315;-74
2022/06/07 08:20:17;;;;;;;14.52;7.20;;;;;;;22.27;55.43;93923.66;5103254;28;20061;-74
2022/06/07 08:22:43;;;;;;;11.60;5.22;;;;;;;22.31;54.54;93919.00;5103305;28;20028;-74
2022/06/07 08:25:10;;;;;;;13.25;6.40;;;;;;;22.40;54.25;93915.91;5103300;28;20225;-76
2022/06/07 08:27:38;;;;;;;11.25;5.28;;;;;;;22.51;53.46;93930.28;5103160;28;20137;-75
2022/06/07 08:30:06;;;;;;;10.70;4.80;;;;;;;22.59;52.01;93918.25;5103264;28;20103;-76
2022/06/07 08:32:32;;;;;;;10.02;4.95;;;;;;;22.36;51.10;93920.56;5103454;28;20042;-77
2022/06/07 08:37:44;;;;;;;9.25;3.92;;;;;;;22.36;51.29;93915.91;5102960;28;20036;-74
2022/06/07 08:40:27;;;;;;;7.50;3.85;;;;;;;22.42;51.82;93913.59;5102962;28;20042;-75
2022/06/07 08:42:56;;;;;;;6.35;3.60;;;;;;;22.61;49.68;93906.97;5102838;28;20040;-74
2022/06/07 08:45:29;;;;;;;8.55;4.15;;;;;;;22.73;49.27;93912.03;5103252;28;20020;-74
2022/06/07 08:47:58;;;;;;;7.03;4.15;;;;;;;22.89;48.75;93914.34;5102932;28;20215;-75
2022/06/07 08:50:27;;;;;;;7.82;3.60;;;;;;;22.97;46.58;93910.44;5102905;28;20023;-75
2022/06/07 08:52:59;;;;;;;9.52;3.45;;;;;;;23.08;46.66;93898.81;5102819;28;20082;-74
2022/06/07 08:55:27;;;;;;;;;;;;;;;23.23;45.83;93901.09;5103806;28;20358;-74
2022/06/07 08:58:05;;;;;;;11.48;2.72;;;;;;;23.26;45.47;93888.66;5103019;28;19967;-74
2022/06/07 09:00:33;;;;;;;6.55;3.70;;;;;;;23.12;44.56;93888.69;5103026;28;20028;-75
2022/06/07 09:03:12;;;;;;;5.00;3.17;;;;;;;23.17;45.14;93885.59;5102713;28;20210;-75
2022/06/07 09:05:37;;;;;;;4.93;2.67;;;;;;;23.26;41.32;93885.94;5102690;28;20035;-75
2022/06/07 09:08:03;;;;;;;5.93;2.47;;;;;;;23.39;40.39;93880.88;5102907;28;20029;-76
2022/06/07 09:13:12;;;;;;;7.82;2.92;;;;;;;23.71;39.81;93886.19;5102849;28;20031;-76
2022/06/07 09:15:40;;;;;;;9.05;2.25;;;;;;;23.78;39.69;93875.28;5102582;28;20366;-76
2022/06/07 09:18:06;;;;;;;5.13;2.60;;;;;;;23.75;40.24;93873.34;5102625;28;20046;-76
2022/06/07 09:20:53;;;;;;;8.55;3.85;;;;;;;23.87;39.71;93876.78;5103081;28;20027;-75
2022/06/07 09:23:29;;;;;;;5.93;3.10;;;;;;;24.01;40.00;93873.97;5106843;28;20027;-76
2022/06/07 09:25:57;;;;;;;4.88;3.30;;;;;;;24.10;40.16;93885.22;5106822;28;20035;-75
2022/06/07 09:28:29;;;;;;;11.95;3.53;;;;;;;24.19;39.96;93884.75;5106442;28;20094;-75
2022/06/07 09:31:10;;;;;;;5.80;3.45;;;;;;;24.10;38.59;93868.88;5106693;28;20070;-78
2022/06/07 09:33:48;;;;;;;7.03;3.80;;;;;;;24.10;39.60;93877.03;5106768;28;20051;-78
2022/06/07 09:36:33;;;;;;;8.80;4.05;;;;;;;24.25;40.87;93872.28;5106499;28;20030;-76
2022/06/07 09:39:06;;;;;;;7.88;3.72;;;;;;;24.37;39.86;93871.78;5106521;28;20020;-76
2022/06/07 09:41:39;;;;;;;7.57;3.20;;;;;;;24.51;39.98;93860.03;5106586;28;20095;-74
2022/06/07 09:44:29;;;;;;;17.15;4.20;;;;;;;24.65;40.85;93859.16;5106380;28;20231;-75
2022/06/07 09:47:11;;;;;;;7.43;3.55;;;;;;;24.70;40.49;93866.13;5106215;28;20047;-75
2022/06/07 09:49:43;;;;;;;8.00;3.90;;;;;;;24.71;40.74;93856.75;5106049;28;20098;-75
2022/06/07 09:52:25;;;;;;;7.90;3.70;;;;;;;24.79;40.87;93852.78;5106143;28;20225;-75
2022/06/07 09:54:59;;;;;;;4.45;3.75;;;;;;;24.86;38.45;93846.50;5106100;28;20011;-76
2022/06/07 09:57:40;;;;;;;5.10;3.83;;;;;;;24.88;37.96;93853.09;5106148;28;20050;-75
2022/06/07 10:00:16;;;;;;;6.20;3.80;;;;;;;24.94;37.93;93846.03;5106213;28;20028;-75
2022/06/07 10:03:00;;;;;;;8.10;4.72;;;;;;;25.05;38.11;93845.13;5106106;28;20035;-74
2022/06/07 10:06:11;;;;;;;5.25;3.60;;;;;;;25.18;38.52;93840.72;5105968;28;20027;-75
2022/06/07 10:09:03;;;;;;;7.65;3.50;;;;;;;25.34;37.90;93842.88;5105849;28;20122;-75
2022/06/07 10:11:53;;;;;;;12.55;3.72;;;;;;;25.48;38.64;93826.34;5105844;28;20030;-76
2022/06/07 10:14:24;;;;;;;6.93;3.72;;;;;;;25.58;38.83;93830.88;5105648;28;20326;-75
2022/06/07 10:17:21;;;;;;;6.23;3.97;;;;;;;25.63;38.04;93822.25;5105720;28;20054;-74
2022/06/07 10:20:17;;;;;;;8.02;3.25;;;;;;;25.65;37.03;93813.66;5105539;28;20027;-74
2022/06/07 10:23:20;;;;;;;9.48;3.20;;;;;;;25.58;38.21;93819.97;5105652;28;20226;-75
2022/06/07 10:26:29;;;;;;;7.40;3.35;;;;;;;25.70;40.51;93818.66;5105665;28;20297;-75
2022/06/07 10:29:09;;;;;;;8.48;3.58;;;;;;;25.80;40.05;93806.03;5105774;28;20016;-76
2022/06/07 10:31:55;;;;;;;5.80;3.90;;;;;;;25.90;38.06;93816.06;5105004;28;20020;-74
2022/06/07 10:34:34;;;;;;;6.43;3.40;;;;;;;25.89;37.59;93810.97;5105223;28;20341;-75
2022/06/07 10:37:20;;;;;;;7.15;3.17;;;;;;;25.86;37.04;93806.34;5105672;28;20020;-75
2022/06/07 10:40:04;;;;;;;7.35;3.60;;;;;;;25.89;37.81;93805.50;5105243;28;20077;-75
2022/06/07 10:42:45;;;;;;;9.18;3.65;;;;;;;26.07;37.91;93795.13;5105328;28;20130;-75
2022/06/07 10:45:22;;;;;;;19.33;4.00;;;;;;;26.28;34.80;93796.00;5087136;28;20040;-75
2022/06/07 10:48:10;;;;;;;6.32;3.55;;;;;;;26.40;35.42;93781.75;5105222;28;20024;-76
2022/06/07 10:50:42;;;;;;;5.57;3.38;;;;;;;26.50;35.20;93783.53;5105261;28;20024;-74
2022/06/07 10:53:25;;;;;;;7.07;3.30;;;;;;;26.57;36.83;93780.69;5104795;28;20316;-75
2022/06/07 10:55:50;;;;;;;8.00;3.55;;;;;;;26.72;38.23;93777.69;5104996;28;20027;-74
2022/06/07 10:58:54;;;;;;;5.38;2.92;;;;;;;26.84;37.84;93781.78;5104878;28;20055;-75
2022/06/07 11:01:35;;;;;;;9.30;3.08;;;;;;;26.93;37.14;93771.84;5062922;28;20032;-75
2022/06/07 11:10:21;;;;;;;4.97;2.80;;;;;;;27.37;35.06;93771.78;5104891;28;20031;-77
2022/06/07 11:13:04;;;;;;;5.87;3.00;;;;;;;27.48;35.78;93774.28;5104819;28;20027;-77
2022/06/07 11:15:39;;;;;;;6.57;3.22;;;;;;;27.52;34.72;93767.53;5104904;28;20028;-78
2022/06/07 11:18:24;;;;;;;5.38;3.00;;;;;;;27.64;34.36;93779.03;5104946;28;20034;-79
2022/06/07 11:21:12;;;;;;;9.05;3.53;;;;;;;27.67;35.36;93778.94;5104833;28;20026;-77
2022/06/07 11:23:46;;;;;;;8.02;3.10;;;;;;;27.82;34.24;93773.91;5104574;28;20356;-77
2022/06/07 11:26:14;;;;;;;5.05;2.67;;;;;;;28.03;33.84;93772.69;5104603;28;20318;-77
2022/06/07 11:28:39;;;;;;;9.10;2.95;;;;;;;28.12;32.11;93770.13;5104422;28;20042;-78
2022/06/07 11:31:23;;;;;;;6.85;3.10;;;;;;;28.18;31.36;93765.66;5104719;28;20314;-76
2022/06/07 11:33:51;;;;;;;6.50;3.25;;;;;;;28.28;31.58;93772.09;5104448;28;20073;-75
2022/06/07 11:36:20;;;;;;;5.00;3.05;;;;;;;28.47;31.55;93764.19;5104143;28;20020;-75
2022/06/07 11:38:57;;;;;;;6.10;2.65;;;;;;;28.64;30.35;93756.75;5104144;28;20016;-75
2022/06/07 11:41:37;;;;;;;7.88;3.10;;;;;;;28.80;30.84;93748.47;5104000;28;20322;-77
2022/06/07 11:44:11;;;;;;;4.93;3.40;;;;;;;28.76;31.53;93748.59;5102941;28;20044;-77
2022/06/07 11:46:52;;;;;;;7.38;3.00;;;;;;;28.78;29.82;93748.13;5103758;28;20077;-75
2022/06/07 11:49:18;;;;;;;4.18;2.85;;;;;;;28.67;30.02;93744.91;5103811;28;20153;-76
2022/06/07 11:51:53;;;;;;;5.13;3.20;;;;;;;28.67;30.42;93742.19;5103808;28;20024;-77
2022/06/07 11:54:26;;;;;;;4.68;3.13;;;;;;;28.77;31.41;93743.88;5103834;28;20020;-77
2022/06/07 11:56:56;;;;;;;3.72;2.95;;;;;;;28.84;31.64;93735.44;5103810;28;20016;-77
2022/06/07 11:59:21;;;;;;;9.93;3.30;;;;;;;28.86;29.72;93722.06;5103652;28;20020;-76
2022/06/07 12:02:07;;;;;;;4.78;2.95;;;;;;;28.90;30.55;93717.25;5103681;28;20047;-76
2022/06/07 12:04:54;;;;;;;4.93;2.67;;;;;;;29.00;31.23;93726.38;5083006;28;20047;-76
2022/06/07 12:07:24;;;;;;;10.13;3.30;;;;;;;28.92;31.88;93727.78;5103742;28;20027;-77
2022/06/07 12:09:59;;;;;;;8.48;3.22;;;;;;;28.85;31.21;93736.97;5105986;28;20023;-74
2022/06/07 12:12:36;;;;;;;9.88;2.90;;;;;;;28.84;31.38;93718.97;5102437;28;20034;-75
2022/06/07 12:15:15;;;;;;;6.03;2.90;;;;;;;28.94;31.37;93715.19;5104101;28;20314;-77
2022/06/07 12:17:56;;;;;;;5.70;2.85;;;;;;;28.96;30.72;93721.00;5104249;28;20180;-77
2022/06/07 12:20:38;;;;;;;4.93;2.33;;;;;;;28.79;29.65;93716.78;5104237;28;20016;-77
2022/06/07 12:23:17;;;;;;;9.45;2.83;;;;;;;28.73;31.46;93710.28;5104221;28;20315;-76
2022/06/07 12:25:53;;;;;;;7.80;2.53;;;;;;;28.97;31.18;93714.31;5104127;28;20015;-76
2022/06/07 12:28:22;;;;;;;3.90;2.63;;;;;;;28.98;30.02;93709.59;5103655;28;20047;-77
2022/06/07 12:30:48;;;;;;;4.90;2.55;;;;;;;29.14;29.79;93703.28;5085407;28;20230;-76
2022/06/07 12:33:24;;;;;;;7.85;3.00;;;;;;;29.43;29.21;93696.94;5103041;28;20079;-76
2022/06/07 12:35:54;;;;;;;3.60;2.20;;;;;;;29.70;28.47;93697.31;5103584;28;20024;-76
2022/06/07 12:38:20;;;;;;;4.00;2.60;;;;;;;29.98;28.50;93700.38;5085370;28;20031;-76
2022/06/07 12:40:45;;;;;;;4.47;2.38;;;;;;;30.13;29.27;93693.19;5103500;28;20318;-78
2022/06/07 12:43:31;;;;;;;6.93;2.42;;;;;;;30.12;28.29;93696.38;5103273;28;20036;-78
2022/06/07 12:46:20;;;;;;;12.70;2.22;;;;;;;30.19;27.77;93696.16;5103126;28;20256;-77
2022/06/07 12:48:46;;;;;;;3.38;2.08;;;;;;;30.12;27.39;93701.88;5102925;28;20077;-78
2022/06/07 12:51:34;;;;;;;3.40;2.35;;;;;;;30.23;27.57;93701.56;5102831;28;20031;-80
2022/06/07 12:54:23;;;;;;;6.50;2.20;;;;;;;30.59;27.38;93696.41;5103069;28;20052;-76
2022/06/07 12:56:54;;;;;;;10.10;2.10;;;;;;;30.97;26.42;93687.22;5067945;28;20368;-78
2022/06/07 12:59:29;;;;;;;3.58;2.40;;;;;;;31.38;26.44;93693.56;5102813;28;20270;-78
2022/06/07 13:01:55;;;;;;;14.48;2.53;;;;;;;31.75;25.92;93693.75;5103031;28;20322;-77
2022/06/07 13:04:39;;;;;;;5.85;2.08;;;;;;;32.06;24.68;93689.41;5102918;28;20035;-77
2022/06/07 13:07:07;;;;;;;3.67;2.08;;;;;;;32.41;24.42;93686.44;5103159;28;20032;-87
2022/06/07 13:09:33;;;;;;;3.10;2.38;;;;;;;32.59;23.63;93683.72;5104068;28;20066;-87
2022/06/07 13:11:59;;;;;;;12.82;2.60;;;;;;;32.93;23.71;93688.13;5103722;28;20020;-88
2022/06/07 13:14:26;;;;;;;4.65;2.40;;;;;;;33.41;23.13;93687.59;5103856;28;20032;-86
2022/06/07 13:16:52;;;;;;;8.40;2.92;;;;;;;33.57;22.46;93689.22;5103237;28;20032;-85
2022/06/07 13:19:28;;;;;;;6.85;2.13;;;;;;;33.32;22.68;93688.41;5102525;28;20374;-84
2022/06/07 13:22:00;;;;;;;4.82;2.30;;;;;;;33.85;22.14;93678.06;5103052;28;20023;-88
2022/06/07 13:24:38;;;;;;;5.50;2.28;;;;;;;34.93;21.64;93671.53;5104489;28;20138;-92
2022/06/07 13:27:18;;;;;;;6.55;2.03;;;;;;;36.13;19.41;93678.53;5104551;28;20035;-92
2022/06/07 13:29:44;;;;;;;3.45;1.90;;;;;;;37.10;17.89;93672.84;5104083;28;20023;-89
2022/06/07 13:32:26;;;;;;;4.80;1.77;;;;;;;37.84;17.36;93662.38;5104163;28;20016;-82
2022/06/07 13:35:03;;;;;;;3.28;1.83;;;;;;;38.56;16.90;93666.13;5103280;28;20039;-85
2022/06/07 13:37:31;;;;;;;2.20;1.70;;;;;;;38.99;16.29;93660.44;5102971;28;20055;-85
2022/06/07 13:40:17;;;;;;;2.65;1.70;;;;;;;38.68;16.36;93657.31;5102963;28;20083;-84
2022/06/07 13:42:43;;;;;;;4.80;2.10;;;;;;;37.81;17.09;93664.16;5095240;28;20040;-83
2022/06/07 13:45:12;;;;;;;8.63;1.98;;;;;;;36.80;18.24;93655.66;5084464;28;20020;-84
2022/06/07 13:47:40;;;;;;;4.75;2.35;;;;;;;36.10;18.83;93651.72;5102574;28;20020;-82
2022/06/07 13:53:21;;;;;;;5.20;2.38;;;;;;;37.31;17.53;93656.94;5102990;28;20031;-86
2022/06/07 13:55:47;;;;;;;9.00;2.50;;;;;;;38.20;17.82;93651.75;5102485;28;20016;-84
2022/06/07 13:58:14;;;;;;;10.70;2.22;;;;;;;39.06;16.11;93652.38;5102177;28;20028;-81
2022/06/07 14:00:41;;;;;;;4.40;1.70;;;;;;;39.79;15.44;93645.28;5084460;28;20089;-85
2022/06/07 14:03:18;;;;;;;5.78;2.13;;;;;;;40.58;14.64;93647.91;5103037;28;20022;-84
2022/06/07 14:05:44;;;;;;;5.75;1.67;;;;;;;41.05;14.88;93636.75;5103369;28;20031;-90
2022/06/07 14:08:15;;;;;;;4.82;2.28;;;;;;;41.61;14.12;93647.56;5107346;28;20016;-87
2022/06/07 14:10:41;;;;;;;;;;;;;;;42.11;12.69;93645.59;5106339;28;20051;-85
2022/06/07 14:13:06;;;;;;;5.13;2.15;;;;;;;42.44;13.26;93647.31;5106120;28;20102;-87
2022/06/07 14:15:34;;;;;;;2.63;1.77;;;;;;;43.11;12.71;93644.16;5107187;28;20028;-90
2022/06/07 14:18:02;;;;;;;4.10;1.80;;;;;;;43.74;12.29;93642.69;5108442;28;20087;-89
2022/06/07 14:20:34;;;;;;;5.93;1.90;;;;;;;44.29;11.48;93630.25;5107407;28;20300;-89
2022/06/07 14:23:01;;;;;;;4.25;2.10;;;;;;;44.36;11.35;93629.59;5109125;28;20028;-93
2022/06/07 14:25:30;;;;;;;7.78;1.58;;;;;;;43.43;11.79;93627.38;5110891;28;20024;-91
2022/06/07 14:27:55;;;;;;;6.60;1.90;;;;;;;42.06;12.92;93624.03;5112156;28;20028;-74
2022/06/07 14:30:22;;;;;;;7.38;2.22;;;;;;;41.08;15.14;93630.16;5105327;28;20074;-70
2022/06/07 14:32:54;;;;;;;3.35;2.03;;;;;;;40.83;14.53;93630.03;5105198;28;20020;-73
2022/06/07 14:35:26;;;;;;;4.55;3.50;;;;;;;41.02;17.91;93626.63;5105363;28;20043;-74
2022/06/07 14:37:54;;;;;;;4.18;3.50;;;;;;;41.28;15.83;93626.97;5105456;28;20028;-75
2022/06/07 14:40:31;;;;;;;5.13;1.92;;;;;;;41.22;14.28;93615.06;5105307;28;20027;-73
2022/06/07 14:42:56;;;;;;;4.40;2.03;;;;;;;40.60;14.43;93620.22;5105295;28;20035;-73
2022/06/07 14:45:26;;;;;;;6.38;1.77;;;;;;;40.65;14.67;93614.63;5105339;28;20330;-73
2022/06/07 14:48:01;;;;;;;8.38;3.45;;;;;;;40.85;15.95;93616.31;5104969;28;20091;-74
2022/06/07 14:50:31;;;;;;;3.80;1.88;;;;;;;40.98;14.01;93614.97;5105317;28;20062;-73
2022/06/07 14:52:56;;;;;;;9.85;2.35;;;;;;;41.34;13.99;93615.72;5105041;28;20025;-76
2022/06/07 14:55:25;;;;;;;3.25;2.17;;;;;;;41.73;14.26;93616.69;5105031;28;20065;-73
2022/06/07 14:57:51;;;;;;;3.03;2.03;;;;;;;42.26;13.91;93606.75;5104862;28;20027;-73
2022/06/07 15:00:19;;;;;;;3.63;2.08;;;;;;;41.91;13.21;93602.00;5104645;28;20069;-73
2022/06/07 15:02:49;;;;;;;3.33;2.17;;;;;;;41.37;13.57;93605.56;5104849;28;20039;-73
2022/06/07 15:05:22;;;;;;;4.20;1.60;;;;;;;41.34;13.82;93603.78;5104749;28;20027;-73
2022/06/07 15:07:53;;;;;;;8.30;4.07;;;;;;;41.63;14.30;93597.47;5104781;28;20204;-74
2022/06/07 15:10:22;;;;;;;6.57;2.03;;;;;;;41.98;13.85;93598.63;5104175;28;20318;-72
2022/06/07 15:12:48;;;;;;;5.93;1.90;;;;;;;41.84;13.20;93589.38;5104232;28;20300;-72
2022/06/07 15:15:14;;;;;;;6.60;1.70;;;;;;;41.36;13.39;93596.41;5104654;28;20093;-82
2022/06/07 15:17:45;;;;;;;4.32;1.77;;;;;;;41.26;13.08;93593.19;5103001;28;20092;-81
2022/06/07 15:20:24;;;;;;;2.33;1.40;;;;;;;41.38;13.00;93590.28;5104216;28;20028;-82
2022/06/07 15:22:51;;;;;;;4.65;1.83;;;;;;;41.45;13.03;93582.09;5103493;28;20035;-80
2022/06/07 15:25:18;;;;;;;4.18;1.58;;;;;;;41.48;12.54;93580.28;5104396;28;20023;-79
2022/06/07 15:27:45;;;;;;;3.60;1.35;;;;;;;41.74;12.84;93576.25;5104395;28;20303;-82
2022/06/07 15:30:11;;;;;;;2.30;1.55;;;;;;;41.90;12.61;93587.25;5104521;28;20024;-78
2022/06/07 15:32:37;;;;;;;2.47;1.15;;;;;;;42.47;12.17;93584.63;5104424;28;20027;-79
2022/06/07 15:35:19;;;;;;;4.55;1.77;;;;;;;42.51;12.06;93581.53;5103328;28;20028;-80
2022/06/07 15:37:46;;;;;;;4.72;1.55;;;;;;;42.20;12.51;93580.84;5102445;28;20039;-78
2022/06/07 15:40:13;;;;;;;2.28;1.48;;;;;;;42.21;12.48;93595.59;5103140;28;20489;-79
2022/06/07 15:42:51;;;;;;;4.32;1.67;;;;;;;41.87;12.72;93587.56;5102517;28;20016;-77
2022/06/07 15:45:48;;;;;;;8.38;1.70;;;;;;;41.37;12.91;93591.56;5102310;28;20032;-79
2022/06/07 15:48:21;;;;;;;3.42;2.03;;;;;;;41.80;12.35;93588.16;5093745;28;20334;-77
2022/06/07 15:50:53;;;;;;;4.88;1.67;;;;;;;42.32;12.56;93589.88;5103551;28;20034;-79
2022/06/07 15:53:22;;;;;;;2.90;1.50;;;;;;;42.46;11.98;93587.94;5103748;28;20100;-78
2022/06/07 15:55:48;;;;;;;6.45;2.28;;;;;;;42.68;11.91;93592.50;5103790;28;20027;-79
2022/06/07 16:00:58;;;;;;;2.85;1.83;;;;;;;42.83;11.84;93586.44;5103821;28;20035;-78
2022/06/07 16:03:24;;;;;;;12.48;1.52;;;;;;;42.78;11.57;93599.22;5103770;28;20016;-78
2022/06/07 16:05:51;;;;;;;3.33;1.55;;;;;;;42.43;11.46;93591.78;5103830;28;20012;-79
2022/06/07 16:08:20;;;;;;;4.50;1.48;;;;;;;41.48;12.42;93600.63;5103718;28;20315;-79
2022/06/07 16:10:49;;;;;;;7.05;1.98;;;;;;;40.50;13.27;93589.78;5103552;28;20086;-78
2022/06/07 16:13:17;;;;;;;3.65;1.45;;;;;;;39.67;13.66;93592.31;5103593;28;20030;-77
2022/06/07 16:15:45;;;;;;;4.40;1.40;;;;;;;39.04;14.28;93598.38;5103620;28;20020;-78
2022/06/07 16:18:12;;;;;;;2.92;1.52;;;;;;;38.56;15.05;93594.50;5103311;28;20023;-78
2022/06/07 16:20:38;;;;;;;7.15;1.58;;;;;;;38.26;15.15;93591.31;5103429;28;20058;-78
2022/06/07 16:23:09;;;;;;;4.85;1.63;;;;;;;37.95;15.37;93598.50;5103643;28;20024;-79
2022/06/07 16:25:35;;;;;;;4.07;1.33;;;;;;;37.27;15.57;93598.03;5102435;28;20278;-78
2022/06/07 16:33:36;;;;;;;6.15;1.50;;;;;;;35.79;17.62;93596.88;5103672;28;20035;-77
2022/06/07 16:36:06;;;;;;;4.47;2.35;;;;;;;35.28;17.76;93596.13;5103528;28;20069;-77
2022/06/07 16:38:38;;;;;;;9.10;1.52;;;;;;;34.89;17.71;93601.00;5103247;28;20028;-76
2022/06/07 16:41:04;;;;;;;;;;;;;;;34.80;18.26;93596.28;5103984;28;20066;-76
2022/06/07 16:46:13;;;;;;;2.33;1.45;;;;;;;34.96;18.30;93608.91;5103442;28;20085;-77
2022/06/07 16:48:40;;;;;;;4.50;1.70;;;;;;;34.75;18.70;93608.03;5103165;28;20309;-76
2022/06/07 16:51:06;;;;;;;4.75;1.55;;;;;;;34.93;18.19;93605.09;5103299;28;20028;-77
2022/06/07 16:53:32;;;;;;;10.40;2.00;;;;;;;35.24;18.24;93601.09;5103222;28;20047;-77
2022/06/07 16:55:58;;;;;;;2.92;1.40;;;;;;;35.14;18.17;93602.41;5103227;28;20284;-77
2022/06/07 16:58:25;;;;;;;2.67;1.40;;;;;;;35.06;18.53;93601.25;5102918;28;20087;-76
2022/06/07 17:00:51;;;;;;;4.72;1.60;;;;;;;34.81;19.23;93599.84;5103007;28;20024;-77
2022/06/07 17:03:17;;;;;;;11.80;2.33;;;;;;;34.26;19.60;93610.13;5102842;28;20023;-77
2022/06/07 17:05:44;;;;;;;7.50;1.95;;;;;;;33.68;19.66;93612.13;5102874;28;20204;-77
2022/06/07 17:08:11;;;;;;;8.80;1.85;;;;;;;33.23;20.69;93607.56;5102975;28;20222;-77
2022/06/07 17:10:38;;;;;;;9.13;3.42;;;;;;;32.61;21.30;93615.03;5102808;28;20024;-78
2022/06/07 17:13:05;;;;;;;5.05;1.85;;;;;;;31.90;22.34;93616.03;5103069;28;20024;-77
2022/06/07 17:15:31;;;;;;;6.22;1.50;;;;;;;31.34;23.21;93618.59;5102931;28;20032;-76
2022/06/07 17:17:57;;;;;;;11.68;2.20;;;;;;;30.88;23.97;93615.63;5102503;28;20099;-75
2022/06/07 17:20:23;;;;;;;5.80;2.40;;;;;;;30.38;24.98;93614.66;5102688;28;20020;-75
2022/06/07 17:22:49;;;;;;;7.22;2.78;;;;;;;29.95;26.00;93616.84;5102240;28;20030;-75
2022/06/07 17:25:15;;;;;;;3.50;2.05;;;;;;;29.61;26.49;93620.28;5102492;28;20044;-75
2022/06/07 17:27:42;;;;;;;3.65;1.60;;;;;;;29.30;26.76;93620.88;5102511;28;20044;-75
2022/06/07 17:30:08;;;;;;;7.00;3.45;;;;;;;28.96;26.92;93621.47;5102519;28;20293;-76
2022/06/07 17:32:37;;;;;;;5.53;2.05;;;;;;;28.62;27.88;93620.09;5102227;28;20027;-75
2022/06/07 17:35:05;;;;;;;5.55;1.88;;;;;;;28.39;27.76;93624.63;5102657;28;20031;-75
2022/06/07 17:37:30;;;;;;;4.88;2.13;;;;;;;28.05;28.90;93624.34;5102240;28;20218;-75
2022/06/07 17:39:56;;;;;;;5.22;2.30;;;;;;;27.83;29.24;93626.84;5102376;28;20047;-76
2022/06/07 17:42:22;;;;;;;7.80;2.42;;;;;;;27.57;29.86;93621.19;5103523;28;20029;-77
2022/06/07 17:44:48;;;;;;;6.70;2.70;;;;;;;27.29;31.90;93623.38;5106051;28;20381;-77
2022/06/07 17:47:13;;;;;;;34.60;4.20;;;;;;;27.09;33.04;93614.44;5106090;28;20024;-77
2022/06/07 17:49:39;;;;;;;5.18;2.30;;;;;;;26.76;32.16;93619.84;5106504;28;20027;-76
2022/06/07 17:52:05;;;;;;;5.88;2.53;;;;;;;26.52;32.39;93617.19;5106081;28;20022;-76
2022/06/07 17:54:30;;;;;;;5.57;3.03;;;;;;;26.36;33.53;93615.13;5105937;28;20059;-76
2022/06/07 17:56:55;;;;;;;10.23;2.55;;;;;;;26.14;34.15;93620.22;5105941;28;20103;-76
2022/06/07 17:59:21;;;;;;;6.90;2.03;;;;;;;25.90;34.15;93611.28;5105913;28;20027;-76
2022/06/07 18:01:46;;;;;;;9.23;3.20;;;;;;;25.76;34.77;93617.75;5106072;28;20035;-76
2022/06/07 18:04:12;;;;;;;8.02;2.08;;;;;;;25.57;34.90;93615.75;5105946;28;20023;-76
2022/06/07 18:06:37;;;;;;;4.30;2.28;;;;;;;25.30;35.08;93622.00;5106019;28;20020;-76
2022/06/07 18:09:03;;;;;;;5.57;2.40;;;;;;;25.06;35.59;93618.44;5105753;28;20062;-76
2022/06/07 18:11:28;;;;;;;3.53;1.95;;;;;;;24.71;36.00;93625.91;5105906;28;20065;-76
2022/06/07 18:13:58;;;;;;;3.60;2.35;;;;;;;24.53;36.48;93623.41;5105593;28;20329;-75
2022/06/07 18:16:24;;;;;;;4.32;2.97;;;;;;;24.29;36.77;93624.44;5105661;28;20038;-76
2022/06/07 18:18:50;;;;;;;8.35;3.40;;;;;;;24.16;39.00;93629.59;5105817;28;20309;-74
2022/06/07 18:21:16;;;;;;;7.70;3.90;;;;;;;23.99;39.19;93626.66;5105925;28;20032;-74
2022/06/07 18:23:43;;;;;;;8.75;3.08;;;;;;;23.83;38.75;93632.66;5105728;28;20277;-74
2022/06/07 18:26:11;;;;;;;4.55;2.70;;;;;;;23.71;39.27;93637.78;5105950;28;20115;-74
2022/06/07 18:28:41;;;;;;;7.88;2.88;;;;;;;23.59;39.13;93628.97;5105761;28;20066;-73
2022/06/07 18:31:15;;;;;;;4.72;2.90;;;;;;;23.48;39.73;93635.66;5105374;28;20037;-73
2022/06/07 18:33:41;;;;;;;8.77;3.20;;;;;;;23.39;39.78;93636.13;5105534;28;20326;-73
2022/06/07 18:36:07;;;;;;;6.90;3.10;;;;;;;23.29;39.72;93640.47;5105543;28;20069;-74
2022/06/07 18:38:33;;;;;;;5.15;2.85;;;;;;;23.15;39.82;93643.28;5087125;28;20016;-74
2022/06/07 18:40:58;;;;;;;9.80;3.25;;;;;;;23.11;40.35;93648.72;5105371;28;20028;-74
2022/06/07 18:43:27;;;;;;;5.88;3.28;;;;;;;23.05;40.32;93650.31;5105059;28;20154;-73
2022/06/07 18:45:53;;;;;;;6.97;2.85;;;;;;;22.90;40.74;93646.88;5104941;28;20050;-74
2022/06/07 18:48:20;;;;;;;4.75;2.30;;;;;;;22.84;41.09;93662.81;5104954;28;20061;-74
2022/06/07 18:50:46;;;;;;;4.57;2.55;;;;;;;22.83;41.19;93661.25;5104995;28;20020;-73
2022/06/07 18:53:35;;;;;;;7.55;2.45;;;;;;;22.78;41.38;93655.47;5104597;28;20097;-73
2022/06/07 18:56:04;;;;;;;7.88;2.40;;;;;;;22.65;41.55;93657.84;5086780;28;20047;-73
2022/06/07 18:58:31;;;;;;;4.47;2.80;;;;;;;22.55;41.52;93662.19;5104853;28;20363;-74
2022/06/07 19:00:58;;;;;;;4.72;2.55;;;;;;;22.48;41.56;93664.91;5104812;28;20023;-74